createdAt,value
2019-06-08T00:03:35.117Z,1022.3
2019-06-08T00:09:09.034Z,1022.4
2019-06-08T00:14:43.131Z,1022.5
2019-06-08T00:20:17.660Z,1022.5
2019-06-08T00:25:50.757Z,1022.3
2019-06-08T00:31:24.638Z,1022.5
2019-06-08T00:36:58.564Z,1022.5
2019-06-08T00:42:32.516Z,1022.6
2019-06-08T00:48:06.348Z,1022.7
2019-06-08T00:53:40.192Z,1022.8
2019-06-08T00:59:14.112Z,1022.9
2019-06-08T01:04:48.028Z,1022.8
2019-06-08T01:10:21.817Z,1022.9
2019-06-08T01:15:55.720Z,1023
2019-06-08T01:21:30.003Z,1022.9
2019-06-08T01:27:03.606Z,1022.9
2019-06-08T01:32:37.448Z,1023
2019-06-08T01:38:11.365Z,1023
2019-06-08T01:43:45.337Z,1023
2019-06-08T01:49:19.152Z,1023
2019-06-08T01:54:53.072Z,1023.1
2019-06-08T02:00:34.833Z,1023.2
2019-06-08T02:06:00.883Z,1023.2
2019-06-08T02:11:34.976Z,1023.1
2019-06-08T02:17:08.733Z,1023.1
2019-06-08T02:22:42.737Z,1023.2
2019-06-08T02:28:16.616Z,1023.2
2019-06-08T02:33:51.209Z,1023.2
2019-06-08T02:39:24.527Z,1023.3
2019-06-08T02:44:58.426Z,1023.4
2019-06-08T02:50:33.019Z,1023.4
2019-06-08T02:56:06.344Z,1023.4
2019-06-08T03:01:40.804Z,1023.5
2019-06-08T03:07:14.163Z,1023.6
2019-06-08T03:12:48.084Z,1023.6
2019-06-08T03:18:21.985Z,1023.7
2019-06-08T03:23:55.893Z,1023.6
2019-06-08T03:29:29.839Z,1023.8
2019-06-08T03:35:03.675Z,1023.9
2019-06-08T03:40:38.173Z,1024
2019-06-08T03:46:11.452Z,1024
2019-06-08T03:51:48.271Z,1024.1
2019-06-08T03:57:19.021Z,1024.2
2019-06-08T04:02:52.892Z,1024.3
2019-06-08T04:08:26.633Z,1024.3
2019-06-08T04:14:00.450Z,1024.5
2019-06-08T04:19:34.171Z,1024.5
2019-06-08T04:25:07.909Z,1024.6
2019-06-08T04:30:42.968Z,1024.5
2019-06-08T04:36:15.499Z,1024.4
2019-06-08T04:41:50.864Z,1024.4
2019-06-08T04:47:23.347Z,1024.4
2019-06-08T04:52:57.279Z,1024.5
2019-06-08T04:58:31.255Z,1024.2
2019-06-08T05:04:05.586Z,1024.2
2019-06-08T05:09:41.062Z,1024.3
2019-06-08T05:15:14.343Z,1024.4
2019-06-08T05:20:49.698Z,1024.4
2019-06-08T05:26:23.187Z,1024.4
2019-06-08T05:31:56.501Z,1024.4
2019-06-08T05:37:30.620Z,1024.4
2019-06-08T05:43:05.080Z,1024.3
2019-06-08T05:48:39.781Z,1024.3
2019-06-08T05:54:14.259Z,1024.3
2019-06-08T05:59:50.195Z,1024.3
2019-06-08T06:05:23.429Z,1024.3
2019-06-08T06:10:58.206Z,1024.2
2019-06-08T06:16:33.994Z,1024.3
2019-06-08T06:22:08.006Z,1024.3
2019-06-08T06:27:43.412Z,1024.3
2019-06-08T06:33:17.801Z,1024.3
2019-06-08T06:38:52.976Z,1024.4
2019-06-08T06:44:28.127Z,1024.6
2019-06-08T06:50:03.142Z,1024.5
2019-06-08T06:55:38.398Z,1024.6
2019-06-08T07:01:13.558Z,1024.7
2019-06-08T07:06:49.909Z,1024.7
2019-06-08T07:12:24.063Z,1024.7
2019-06-08T07:17:59.308Z,1024.8
2019-06-08T07:23:34.622Z,1024.9
2019-06-08T07:29:09.932Z,1024.7
2019-06-08T07:34:45.260Z,1024.7
2019-06-08T07:40:25.087Z,1024.5
2019-06-08T07:46:00.523Z,1024.5
2019-06-08T07:51:35.884Z,1024.5
2019-06-08T07:57:11.266Z,1024.4
2019-06-08T08:02:48.028Z,1024.1
2019-06-08T08:08:22.346Z,1024.1
2019-06-08T08:13:59.079Z,1024.1
2019-06-08T08:19:33.676Z,1024.1
2019-06-08T08:25:09.300Z,1024
2019-06-08T08:30:45.077Z,1024
2019-06-08T08:36:20.982Z,1024
2019-06-08T08:42:02.272Z,1023.9
2019-06-08T08:47:32.465Z,1024.1
2019-06-08T08:53:08.445Z,1024
2019-06-08T08:58:44.037Z,1023.9
2019-06-08T09:04:19.928Z,1023.8
2019-06-08T09:09:58.391Z,1023.9
2019-06-08T09:15:31.704Z,1023.8
2019-06-08T09:21:08.333Z,1023.8
2019-06-08T09:26:43.607Z,1023.9
2019-06-08T09:32:19.634Z,1023.9
2019-06-08T09:37:57.304Z,1023.9
2019-06-08T09:43:31.604Z,1023.8
2019-06-08T09:49:09.100Z,1023.9
2019-06-08T09:54:43.446Z,1023.8
2019-06-08T10:00:22.189Z,1023.7
2019-06-08T10:05:56.610Z,1023.7
2019-06-08T10:11:31.452Z,1023.7
2019-06-08T10:17:08.853Z,1023.5
2019-06-08T10:22:43.683Z,1023.5
2019-06-08T10:28:21.659Z,1023.5
2019-06-08T10:33:58.563Z,1023.3
2019-06-08T10:39:32.286Z,1023.3
2019-06-08T10:45:13.021Z,1023.3
2019-06-08T10:50:49.229Z,1023.2
2019-06-08T10:56:28.348Z,1023.2
2019-06-08T11:02:04.935Z,1023.1
2019-06-08T11:07:38.145Z,1023.2
2019-06-08T11:13:15.031Z,1023.1
2019-06-08T11:18:51.099Z,1023
2019-06-08T11:24:28.916Z,1023
2019-06-08T11:30:11.253Z,1023
2019-06-08T11:35:39.990Z,1023.1
2019-06-08T11:41:18.357Z,1023
2019-06-08T11:46:52.580Z,1022.9
2019-06-08T11:52:28.829Z,1022.9
2019-06-08T11:58:05.219Z,1022.8
2019-06-08T12:03:41.662Z,1022.6
2019-06-08T12:09:18.943Z,1022.7
2019-06-08T12:14:54.585Z,1022.6
2019-06-08T12:20:31.091Z,1022.5
2019-06-08T12:26:08.163Z,1022.4
2019-06-08T12:31:44.305Z,1022.5
2019-06-08T12:37:22.275Z,1022.5
2019-06-08T12:42:59.285Z,1022.3
2019-06-08T12:48:33.619Z,1022.2
2019-06-08T12:54:11.423Z,1022.1
2019-06-08T12:59:46.870Z,1022.2
2019-06-08T13:05:23.476Z,1022.1
2019-06-08T13:11:00.286Z,1022.2
2019-06-08T13:16:38.179Z,1022.2
2019-06-08T13:22:13.129Z,1022.2
2019-06-08T13:27:49.690Z,1022.3
2019-06-08T13:33:28.032Z,1022.2
2019-06-08T13:39:09.683Z,1022
2019-06-08T13:44:44.151Z,1022.1
2019-06-08T13:55:58.304Z,1022.1
2019-06-08T14:01:37.286Z,1021.9
2019-06-08T14:07:11.847Z,1021.8
2019-06-08T14:12:48.939Z,1021.6
2019-06-08T14:18:29.645Z,1021.6
2019-06-08T14:24:02.802Z,1021.7
2019-06-08T14:29:39.734Z,1021.6
2019-06-08T14:35:18.618Z,1021.4
2019-06-08T14:40:52.977Z,1021.2
2019-06-08T14:46:30.423Z,1021.1
2019-06-08T14:52:07.909Z,1021.2
2019-06-08T14:57:44.292Z,1021.3
2019-06-08T15:03:21.430Z,1021.2
2019-06-08T15:08:58.620Z,1021
2019-06-08T15:14:38.358Z,1020.9
2019-06-08T15:20:12.493Z,1020.8
2019-06-08T15:25:49.655Z,1020.8
2019-06-08T15:31:29.441Z,1020.8
2019-06-08T15:42:42.815Z,1020.7
2019-06-08T15:48:22.098Z,1020.7
2019-06-08T15:53:57.894Z,1020.6
2019-06-08T15:59:38.660Z,1020.5
2019-06-08T16:05:10.905Z,1020.6
2019-06-08T16:10:48.467Z,1020.7
2019-06-08T16:16:26.971Z,1020.7
2019-06-08T16:22:02.749Z,1020.7
2019-06-08T16:27:39.576Z,1020.7
2019-06-08T16:33:16.691Z,1020.8
2019-06-08T16:38:53.224Z,1020.9
2019-06-08T16:44:30.085Z,1020.8
2019-06-08T16:50:06.856Z,1020.8
2019-06-08T16:55:43.345Z,1020.9
2019-06-08T17:01:20.210Z,1020.9
2019-06-08T17:06:57.000Z,1021
2019-06-08T17:12:34.718Z,1021
2019-06-08T17:18:10.390Z,1021.1
2019-06-08T17:23:46.877Z,1021.1
2019-06-08T17:29:23.264Z,1021.1
2019-06-08T17:34:59.577Z,1021.2
2019-06-08T17:40:35.956Z,1021.3
2019-06-08T17:46:12.037Z,1021.2
2019-06-08T17:51:48.084Z,1021.3
2019-06-08T17:57:24.170Z,1021.3
2019-06-08T18:03:00.557Z,1021.4
2019-06-08T18:08:40.529Z,1021.5
2019-06-08T18:14:12.346Z,1021.6
2019-06-08T18:19:49.581Z,1021.6
2019-06-08T18:25:23.660Z,1021.7
2019-06-08T18:30:58.556Z,1021.8
2019-06-08T18:36:34.623Z,1022
2019-06-08T18:42:08.711Z,1022.3
2019-06-08T18:47:43.964Z,1022.4
2019-06-08T18:53:19.337Z,1022.6
2019-06-08T18:58:54.006Z,1022.7
2019-06-08T19:04:30.743Z,1022.8
2019-06-08T19:10:03.667Z,1022.9
2019-06-08T19:15:41.810Z,1022.9
2019-06-08T19:21:12.966Z,1023
2019-06-08T19:26:48.909Z,1023.2
2019-06-08T19:32:21.973Z,1023.1
2019-06-08T19:37:58.282Z,1023.2
2019-06-08T19:43:30.528Z,1023.4
2019-06-08T19:49:04.178Z,1023.4
2019-06-08T19:54:41.959Z,1023.6
2019-06-08T20:00:12.432Z,1023.7
2019-06-08T20:05:50.521Z,1023.7
2019-06-08T20:11:21.351Z,1023.7
2019-06-08T20:16:57.767Z,1023.8
2019-06-08T20:22:30.142Z,1023.9
2019-06-08T20:28:04.588Z,1023.9
2019-06-08T20:33:39.020Z,1023.9
2019-06-08T20:39:13.501Z,1023.8
2019-06-08T20:44:49.009Z,1023.8
2019-06-08T20:50:22.246Z,1023.8
2019-06-08T20:55:57.187Z,1023.9
2019-06-08T21:01:31.069Z,1024
2019-06-08T21:07:07.608Z,1024.1
2019-06-08T21:12:39.823Z,1024
2019-06-08T21:18:14.261Z,1024
2019-06-08T21:23:51.475Z,1024
2019-06-08T21:29:22.834Z,1023.9
2019-06-08T21:34:59.863Z,1024.4
2019-06-08T21:40:31.215Z,1024.4
2019-06-08T21:46:04.580Z,1024.4
2019-06-08T21:51:37.938Z,1024.4
2019-06-08T21:57:11.212Z,1024.4
2019-06-08T22:02:47.814Z,1024.5
2019-06-08T22:08:19.490Z,1024.4
2019-06-08T22:13:54.674Z,1024.4
2019-06-08T22:19:27.862Z,1024.4
2019-06-08T22:25:02.059Z,1024.3
2019-06-08T22:30:42.451Z,1024.4
2019-06-08T22:36:10.385Z,1024.3
2019-06-08T22:41:44.497Z,1024.3
2019-06-08T22:47:18.600Z,1024.4
2019-06-08T22:52:53.495Z,1024.6
2019-06-08T22:58:27.545Z,1024.6
2019-06-08T23:04:00.827Z,1024.6
2019-06-08T23:09:31.666Z,1024.7
2019-06-08T23:15:07.248Z,1024.7
2019-06-08T23:20:38.030Z,1024.7
2019-06-08T23:26:11.166Z,1024.7
2019-06-08T23:31:44.395Z,1024.8
2019-06-08T23:37:18.193Z,1024.8
2019-06-08T23:42:50.527Z,1024.9
2019-06-08T23:48:23.701Z,1024.9
2019-06-08T23:53:58.666Z,1024.9
2019-06-08T23:59:29.750Z,1025
